createdAt,value
2017-07-31T00:02:23.528Z,94388.55
2017-07-31T00:04:51.310Z,94394.60
2017-07-31T00:07:19.004Z,94406.19
2017-07-31T00:09:46.753Z,94415.89
2017-07-31T00:12:14.526Z,94413.33
2017-07-31T00:14:42.280Z,94408.09
2017-07-31T00:17:10.032Z,94400.11
2017-07-31T00:19:37.878Z,94396.52
2017-07-31T00:22:05.600Z,94388.50
2017-07-31T00:24:33.347Z,94391.27
2017-07-31T00:27:01.130Z,94392.41
2017-07-31T00:29:28.852Z,94386.44
2017-07-31T00:31:56.639Z,94392.48
2017-07-31T00:34:24.421Z,94390.97
2017-07-31T00:36:52.104Z,94396.55
2017-07-31T00:39:19.830Z,94393.42
2017-07-31T00:41:47.561Z,94391.43
2017-07-31T00:44:15.310Z,94388.38
2017-07-31T00:46:43.125Z,94386.63
2017-07-31T00:49:10.835Z,94384.78
2017-07-31T00:51:38.534Z,94386.48
2017-07-31T00:54:06.395Z,94387.89
2017-07-31T00:56:34.109Z,94380.72
2017-07-31T00:59:01.887Z,94376.42
2017-07-31T01:01:29.651Z,94364.40
2017-07-31T01:03:57.392Z,94362.84
2017-07-31T01:06:25.192Z,94353.77
2017-07-31T01:08:52.895Z,94352.16
2017-07-31T01:11:20.571Z,94344.22
2017-07-31T01:13:48.310Z,94347.66
2017-07-31T01:16:16.065Z,94351.77
2017-07-31T01:18:43.845Z,94354.75
2017-07-31T01:21:11.866Z,94353.11
2017-07-31T01:23:39.656Z,94348.64
2017-07-31T01:26:07.431Z,94354.93
2017-07-31T01:28:35.203Z,94347.69
2017-07-31T01:31:02.918Z,94339.73
2017-07-31T01:33:30.654Z,94333.80
2017-07-31T01:35:58.423Z,94339.18
2017-07-31T01:38:26.204Z,94340.53
2017-07-31T01:40:53.946Z,94333.95
2017-07-31T01:43:21.641Z,94331.02
2017-07-31T01:45:49.509Z,94332.47
2017-07-31T01:48:17.288Z,94337.20
2017-07-31T01:50:45.065Z,94338.16
2017-07-31T01:53:12.838Z,94341.74
2017-07-31T01:55:40.629Z,94346.32
2017-07-31T01:58:08.420Z,94349.34
2017-07-31T02:00:36.304Z,94353.72
2017-07-31T02:03:04.440Z,94360.63
2017-07-31T02:05:32.221Z,94370.00
2017-07-31T02:08:00.233Z,94371.14
2017-07-31T02:10:27.940Z,94374.80
2017-07-31T02:12:55.644Z,94383.86
2017-07-31T02:15:23.413Z,94385.14
2017-07-31T02:17:51.160Z,94381.45
2017-07-31T02:20:18.924Z,94379.11
2017-07-31T02:22:46.758Z,94378.92
2017-07-31T02:25:14.480Z,94386.36
2017-07-31T02:27:42.192Z,94381.09
2017-07-31T02:30:09.973Z,94374.88
2017-07-31T02:32:37.694Z,94377.55
2017-07-31T02:35:05.444Z,94380.86
2017-07-31T02:37:33.257Z,94390.14
2017-07-31T02:40:01.026Z,94398.65
2017-07-31T02:42:28.718Z,94397.86
2017-07-31T02:44:56.519Z,94416.05
2017-07-31T02:47:24.253Z,94431.48
2017-07-31T02:49:51.995Z,94434.95
2017-07-31T02:52:19.906Z,94424.74
2017-07-31T02:54:47.622Z,94427.18
2017-07-31T02:57:15.342Z,94423.92
2017-07-31T02:59:43.895Z,94428.52
2017-07-31T03:02:11.757Z,94434.95
2017-07-31T03:04:39.702Z,94438.86
2017-07-31T03:07:07.855Z,94442.30
2017-07-31T03:09:35.885Z,94448.58
2017-07-31T03:12:03.953Z,94449.22
2017-07-31T03:14:31.922Z,94449.01
2017-07-31T03:16:59.995Z,94449.22
2017-07-31T03:19:28.012Z,94444.98
2017-07-31T03:21:55.692Z,94450.47
2017-07-31T03:24:23.410Z,94454.48
2017-07-31T03:26:51.205Z,94462.62
2017-07-31T03:29:19.001Z,94462.40
2017-07-31T03:31:46.755Z,94472.41
2017-07-31T03:34:14.487Z,94473.36
2017-07-31T03:36:42.185Z,94481.91
2017-07-31T03:39:09.892Z,94484.64
2017-07-31T03:41:37.762Z,94484.31
2017-07-31T03:44:05.454Z,94469.86
2017-07-31T03:46:33.176Z,94475.16
2017-07-31T03:49:01.027Z,94467.30
2017-07-31T03:51:28.715Z,94458.91
2017-07-31T03:53:56.466Z,94463.53
2017-07-31T03:56:24.192Z,94472.32
2017-07-31T03:58:52.018Z,94475.59
2017-07-31T04:01:19.819Z,94473.41
2017-07-31T04:03:47.525Z,94472.81
2017-07-31T04:06:15.351Z,94464.48
2017-07-31T04:08:43.097Z,94474.80
2017-07-31T04:11:10.856Z,94474.28
2017-07-31T04:13:38.565Z,94482.46
2017-07-31T04:16:06.315Z,94485.08
2017-07-31T04:18:34.002Z,94489.61
2017-07-31T04:21:01.780Z,94496.59
2017-07-31T04:23:29.480Z,94502.03
2017-07-31T04:25:57.298Z,94501.62
2017-07-31T04:28:25.329Z,94496.20
2017-07-31T04:30:53.084Z,94501.84
2017-07-31T04:33:20.848Z,94513.59
2017-07-31T04:35:48.638Z,94512.42
2017-07-31T04:38:16.361Z,94519.19
2017-07-31T04:40:44.081Z,94521.13
2017-07-31T04:43:11.760Z,94521.17
2017-07-31T04:45:39.497Z,94530.63
2017-07-31T04:48:08.501Z,94530.84
2017-07-31T04:50:36.736Z,94543.20
2017-07-31T04:53:04.566Z,94547.21
2017-07-31T04:55:32.290Z,94548.16
2017-07-31T04:58:00.101Z,94551.06
2017-07-31T05:00:27.885Z,94549.59
2017-07-31T05:02:55.584Z,94556.36
2017-07-31T05:05:23.305Z,94558.95
2017-07-31T05:07:51.035Z,94554.80
2017-07-31T05:10:18.734Z,94565.08
2017-07-31T05:12:46.461Z,94558.23
2017-07-31T05:15:14.219Z,94560.79
2017-07-31T05:17:41.924Z,94563.62
2017-07-31T05:20:09.645Z,94567.46
2017-07-31T05:22:37.429Z,94572.77
2017-07-31T05:25:05.147Z,94564.61
2017-07-31T05:27:32.831Z,94561.25
2017-07-31T05:30:00.628Z,94564.57
2017-07-31T05:32:28.409Z,94571.37
2017-07-31T05:34:56.174Z,94571.05
2017-07-31T05:37:24.473Z,94582.36
2017-07-31T05:39:53.100Z,94568.57
2017-07-31T05:42:20.833Z,94575.67
2017-07-31T05:44:51.509Z,94565.41
2017-07-31T05:47:19.244Z,94570.42
2017-07-31T05:49:46.950Z,94575.45
2017-07-31T05:52:14.728Z,94581.00
2017-07-31T05:54:42.516Z,94584.95
2017-07-31T05:57:10.307Z,94591.14
2017-07-31T05:59:38.055Z,94586.63
2017-07-31T06:02:06.483Z,94586.89
2017-07-31T06:04:34.222Z,94596.39
2017-07-31T06:07:02.045Z,94591.08
2017-07-31T06:09:29.806Z,94595.20
2017-07-31T06:11:57.519Z,94599.61
2017-07-31T06:14:25.252Z,94594.46
2017-07-31T06:16:53.020Z,94589.45
2017-07-31T06:19:20.993Z,94586.66
2017-07-31T06:21:49.125Z,94592.77
2017-07-31T06:24:16.923Z,94592.63
2017-07-31T06:26:44.665Z,94591.89
2017-07-31T06:29:12.357Z,94581.03
2017-07-31T06:31:40.097Z,94581.48
2017-07-31T06:34:07.834Z,94578.94
2017-07-31T06:36:35.573Z,94578.11
2017-07-31T06:39:03.461Z,94576.23
2017-07-31T06:41:31.248Z,94582.52
2017-07-31T06:43:59.056Z,94580.09
2017-07-31T06:46:26.910Z,94578.83
2017-07-31T06:48:54.693Z,94573.61
2017-07-31T06:51:22.403Z,94570.39
2017-07-31T06:53:50.212Z,94578.48
2017-07-31T06:56:17.986Z,94572.11
2017-07-31T06:58:45.716Z,94568.44
2017-07-31T07:01:13.458Z,94555.71
2017-07-31T07:03:41.413Z,94554.89
2017-07-31T07:06:09.182Z,94554.77
2017-07-31T07:08:37.045Z,94559.56
2017-07-31T07:11:04.813Z,94548.66
2017-07-31T07:13:32.528Z,94548.79
2017-07-31T07:16:00.230Z,94545.48
2017-07-31T07:18:27.940Z,94549.09
2017-07-31T07:20:55.708Z,94546.64
2017-07-31T07:23:23.443Z,94540.56
2017-07-31T07:25:51.187Z,94537.28
2017-07-31T07:28:18.946Z,94535.22
2017-07-31T07:30:46.669Z,94529.80
2017-07-31T07:33:14.528Z,94530.13
2017-07-31T07:35:42.233Z,94525.90
2017-07-31T07:38:09.952Z,94530.59
2017-07-31T07:40:37.709Z,94528.91
2017-07-31T07:43:05.486Z,94525.86
2017-07-31T07:45:33.202Z,94526.36
2017-07-31T07:48:01.055Z,94532.20
2017-07-31T07:50:29.374Z,94524.00
2017-07-31T07:52:57.196Z,94524.72
2017-07-31T07:55:25.015Z,94521.80
2017-07-31T07:57:52.752Z,94521.02
2017-07-31T08:00:20.544Z,94510.72
2017-07-31T08:02:48.315Z,94513.86
2017-07-31T08:05:16.038Z,94501.34
2017-07-31T08:07:43.824Z,94492.25
2017-07-31T08:10:11.645Z,94497.64
2017-07-31T08:12:39.360Z,94501.25
2017-07-31T08:15:07.083Z,94494.77
2017-07-31T08:17:34.851Z,94490.06
2017-07-31T08:20:02.574Z,94493.47
2017-07-31T08:22:30.355Z,94495.12
2017-07-31T08:24:58.107Z,94495.72
2017-07-31T08:27:25.844Z,94498.77
2017-07-31T08:29:53.656Z,94496.16
2017-07-31T08:32:21.344Z,94495.50
2017-07-31T08:34:49.160Z,94506.42
2017-07-31T08:37:16.908Z,94504.11
2017-07-31T08:39:44.688Z,94504.89
2017-07-31T08:42:13.104Z,94497.89
2017-07-31T08:44:40.821Z,94494.17
2017-07-31T08:47:08.699Z,94492.34
2017-07-31T08:49:36.468Z,94486.50
2017-07-31T08:52:04.265Z,94489.28
2017-07-31T08:54:31.994Z,94483.66
2017-07-31T08:56:59.774Z,94485.01
2017-07-31T08:59:27.594Z,94490.81
2017-07-31T09:01:55.307Z,94493.89
2017-07-31T09:04:23.156Z,94485.71
2017-07-31T09:06:50.923Z,94483.86
2017-07-31T09:09:18.628Z,94478.12
2017-07-31T09:11:46.361Z,94477.48
2017-07-31T09:14:14.134Z,94479.48
2017-07-31T09:16:41.840Z,94472.44
2017-07-31T09:19:09.664Z,94468.02
2017-07-31T09:21:37.375Z,94466.84
2017-07-31T09:24:05.144Z,94465.86
2017-07-31T09:26:32.945Z,94461.46
2017-07-31T09:29:00.778Z,94459.63
2017-07-31T09:31:28.517Z,94450.56
2017-07-31T09:33:56.272Z,94450.49
2017-07-31T09:36:24.020Z,94449.33
2017-07-31T09:38:51.814Z,94450.32
2017-07-31T09:41:19.479Z,94447.42
2017-07-31T09:43:47.243Z,94437.77
2017-07-31T09:46:14.931Z,94444.29
2017-07-31T09:48:42.635Z,94435.77
2017-07-31T09:51:10.390Z,94432.62
2017-07-31T09:53:38.212Z,94427.61
2017-07-31T09:56:05.965Z,94427.88
2017-07-31T09:58:33.653Z,94422.48
2017-07-31T10:01:01.362Z,94419.00
2017-07-31T10:03:29.176Z,94413.39
2017-07-31T10:05:56.870Z,94416.22
2017-07-31T10:08:24.566Z,94408.34
2017-07-31T10:10:52.339Z,94405.02
2017-07-31T10:13:20.043Z,94406.30
2017-07-31T10:15:47.788Z,94408.17
2017-07-31T10:18:15.530Z,94403.16
2017-07-31T10:20:43.286Z,94407.21
2017-07-31T10:23:11.050Z,94398.80
2017-07-31T10:25:38.773Z,94402.74
2017-07-31T10:28:06.463Z,94402.03
2017-07-31T10:30:35.390Z,94400.15
2017-07-31T10:33:03.132Z,94404.91
2017-07-31T10:35:30.943Z,94399.12
2017-07-31T10:37:58.705Z,94393.66
2017-07-31T10:40:26.439Z,94389.00
2017-07-31T10:42:54.294Z,94393.02
2017-07-31T10:45:22.002Z,94387.17
2017-07-31T10:47:49.886Z,94387.76
2017-07-31T10:50:17.691Z,94390.53
2017-07-31T10:52:45.431Z,94387.12
2017-07-31T10:55:13.431Z,94386.58
2017-07-31T10:57:41.161Z,94379.72
2017-07-31T11:00:08.929Z,94380.52
2017-07-31T11:02:36.772Z,94375.54
2017-07-31T11:05:04.492Z,94378.82
2017-07-31T11:07:32.274Z,94381.11
2017-07-31T11:10:00.366Z,94373.44
2017-07-31T11:12:28.632Z,94370.67
2017-07-31T11:14:56.370Z,94375.84
2017-07-31T11:17:24.266Z,94366.55
2017-07-31T11:19:51.990Z,94374.22
2017-07-31T11:22:19.824Z,94373.25
2017-07-31T11:24:47.665Z,94368.52
2017-07-31T11:27:15.341Z,94366.06
2017-07-31T11:29:43.059Z,94364.83
2017-07-31T11:32:11.514Z,94359.84
2017-07-31T11:34:39.405Z,94357.50
2017-07-31T11:37:07.122Z,94358.38
2017-07-31T11:39:34.890Z,94353.37
2017-07-31T11:42:02.820Z,94353.68
2017-07-31T11:44:30.530Z,94349.92
2017-07-31T11:46:58.719Z,94353.35
2017-07-31T11:49:26.470Z,94348.98
2017-07-31T11:51:54.237Z,94346.06
2017-07-31T11:54:22.091Z,94341.20
2017-07-31T11:56:49.802Z,94331.92
2017-07-31T11:59:17.543Z,94334.22
2017-07-31T12:01:45.307Z,94335.73
2017-07-31T12:04:13.021Z,94336.86
2017-07-31T12:06:41.951Z,94338.53
2017-07-31T12:09:09.718Z,94333.19
2017-07-31T12:11:38.106Z,94330.81
2017-07-31T12:14:06.982Z,94330.03
2017-07-31T12:16:34.736Z,94322.70
2017-07-31T12:19:02.484Z,94321.70
2017-07-31T12:21:30.229Z,94324.16
2017-07-31T12:23:58.027Z,94317.94
2017-07-31T12:26:25.832Z,94316.56
2017-07-31T12:28:53.578Z,94309.45
2017-07-31T12:31:21.310Z,94318.42
2017-07-31T12:33:49.161Z,94320.50
2017-07-31T12:36:16.922Z,94319.03
2017-07-31T12:38:44.692Z,94316.64
2017-07-31T12:41:12.401Z,94317.50
2017-07-31T12:43:40.197Z,94315.69
2017-07-31T12:46:07.965Z,94311.77
2017-07-31T12:48:35.697Z,94307.75
2017-07-31T12:51:03.529Z,94307.61
2017-07-31T12:53:31.280Z,94307.41
2017-07-31T12:55:59.005Z,94309.52
2017-07-31T12:58:26.783Z,94303.73
2017-07-31T13:00:54.566Z,94305.41
2017-07-31T13:03:22.428Z,94298.33
2017-07-31T13:05:50.182Z,94302.67
2017-07-31T13:08:17.873Z,94305.70
2017-07-31T13:10:46.679Z,94302.59
2017-07-31T13:13:14.459Z,94304.06
2017-07-31T13:15:42.196Z,94297.45
2017-07-31T13:18:09.960Z,94297.50
2017-07-31T13:20:37.734Z,94299.12
2017-07-31T13:23:05.635Z,94300.47
2017-07-31T13:25:33.564Z,94300.85
2017-07-31T13:28:01.403Z,94298.65
2017-07-31T13:30:29.341Z,94292.93
2017-07-31T13:32:57.592Z,94292.26
2017-07-31T13:35:25.495Z,94293.64
2017-07-31T13:37:53.461Z,94291.55
2017-07-31T13:40:21.495Z,94292.65
2017-07-31T13:42:49.597Z,94282.30
2017-07-31T13:45:17.497Z,94292.38
2017-07-31T13:47:45.481Z,94288.32
2017-07-31T13:50:13.335Z,94283.83
2017-07-31T13:52:41.225Z,94287.56
2017-07-31T13:55:09.159Z,94280.09
2017-07-31T13:57:37.082Z,94285.02
2017-07-31T14:00:05.031Z,94282.49
2017-07-31T14:02:32.959Z,94285.16
2017-07-31T14:05:01.227Z,94287.05
2017-07-31T14:07:29.074Z,94288.11
2017-07-31T14:09:56.889Z,94285.09
2017-07-31T14:12:24.913Z,94284.86
2017-07-31T14:14:52.771Z,94286.15
2017-07-31T14:17:20.661Z,94285.37
2017-07-31T14:19:48.588Z,94275.18
2017-07-31T14:22:16.451Z,94283.79
2017-07-31T14:24:44.320Z,94283.02
2017-07-31T14:27:12.161Z,94281.49
2017-07-31T14:29:39.984Z,94272.36
2017-07-31T14:32:07.908Z,94273.41
2017-07-31T14:34:35.687Z,94276.98
2017-07-31T14:37:03.462Z,94275.07
2017-07-31T14:39:31.253Z,94276.03
2017-07-31T14:41:59.205Z,94271.67
2017-07-31T14:44:26.991Z,94275.00
2017-07-31T14:46:54.907Z,94270.57
2017-07-31T14:49:22.879Z,94273.91
2017-07-31T14:51:51.900Z,94266.23
2017-07-31T14:54:19.840Z,94272.16
2017-07-31T14:56:47.725Z,94275.11
2017-07-31T14:59:15.580Z,94273.34
2017-07-31T15:01:43.439Z,94275.14
2017-07-31T15:04:11.160Z,94269.81
2017-07-31T15:06:39.032Z,94267.30
2017-07-31T15:09:06.928Z,94271.38
2017-07-31T15:11:34.649Z,94278.59
2017-07-31T15:14:02.424Z,94271.13
2017-07-31T15:16:30.214Z,94268.25
2017-07-31T15:18:58.977Z,94268.63
2017-07-31T15:21:26.785Z,94270.22
2017-07-31T15:23:54.761Z,94269.34
2017-07-31T15:26:22.443Z,94265.87
2017-07-31T15:28:50.146Z,94267.56
2017-07-31T15:31:17.923Z,94263.19
2017-07-31T15:33:45.647Z,94269.95
2017-07-31T15:36:13.422Z,94257.55
2017-07-31T15:38:41.156Z,94262.59
2017-07-31T15:41:08.962Z,94259.30
2017-07-31T15:43:36.657Z,94259.28
2017-07-31T15:46:04.416Z,94256.91
2017-07-31T15:48:32.198Z,94256.86
2017-07-31T15:51:00.005Z,94256.27
2017-07-31T15:53:27.710Z,94259.52
2017-07-31T15:55:55.766Z,94257.52
2017-07-31T15:58:23.579Z,94256.53
2017-07-31T16:00:51.356Z,94259.39
2017-07-31T16:03:19.229Z,94260.27
2017-07-31T16:05:47.012Z,94262.27
2017-07-31T16:08:14.713Z,94264.14
2017-07-31T16:10:42.524Z,94265.14
2017-07-31T16:13:10.361Z,94261.64
2017-07-31T16:15:38.066Z,94260.66
2017-07-31T16:18:05.859Z,94268.70
2017-07-31T16:20:33.752Z,94266.27
2017-07-31T16:23:01.524Z,94265.14
2017-07-31T16:25:29.204Z,94260.09
2017-07-31T16:27:57.098Z,94261.26
2017-07-31T16:30:24.953Z,94264.11
2017-07-31T16:32:52.651Z,94263.17
2017-07-31T16:35:21.477Z,94267.52
2017-07-31T16:37:49.367Z,94262.44
2017-07-31T16:40:28.668Z,94257.64
2017-07-31T16:43:08.203Z,94255.27
2017-07-31T16:45:53.951Z,94259.73
2017-07-31T16:48:31.596Z,94261.78
2017-07-31T16:50:59.460Z,94264.59
2017-07-31T16:53:27.483Z,94266.02
2017-07-31T16:55:55.289Z,94266.86
2017-07-31T16:58:23.089Z,94266.45
2017-07-31T17:00:50.944Z,94261.01
2017-07-31T17:03:18.719Z,94266.92
2017-07-31T17:05:46.518Z,94266.70
2017-07-31T17:08:14.703Z,94273.20
2017-07-31T17:10:42.416Z,94270.48
2017-07-31T17:13:10.121Z,94271.41
2017-07-31T17:15:37.886Z,94277.70
2017-07-31T17:18:05.600Z,94277.55
2017-07-31T17:20:33.328Z,94276.81
2017-07-31T17:23:01.116Z,94281.91
2017-07-31T17:25:28.912Z,94282.58
2017-07-31T17:27:56.643Z,94284.52
2017-07-31T17:30:24.416Z,94287.81
2017-07-31T17:32:52.177Z,94288.92
2017-07-31T17:35:19.984Z,94288.30
2017-07-31T17:37:47.803Z,94289.95
2017-07-31T17:40:15.524Z,94298.98
2017-07-31T17:42:43.212Z,94307.02
2017-07-31T17:45:10.959Z,94311.09
2017-07-31T17:47:39.581Z,94311.72
2017-07-31T17:50:07.298Z,94313.39
2017-07-31T17:52:35.197Z,94314.20
2017-07-31T17:55:02.942Z,94313.94
2017-07-31T17:57:31.189Z,94324.27
2017-07-31T17:59:59.013Z,94322.55
2017-07-31T18:02:26.871Z,94327.40
2017-07-31T18:04:54.573Z,94327.95
2017-07-31T18:07:22.963Z,94335.72
2017-07-31T18:09:50.752Z,94345.17
2017-07-31T18:12:18.551Z,94342.44
2017-07-31T18:14:46.360Z,94344.14
2017-07-31T18:17:14.084Z,94347.95
2017-07-31T18:19:41.914Z,94352.87
2017-07-31T18:22:09.636Z,94360.80
2017-07-31T18:24:37.600Z,94357.84
2017-07-31T18:27:05.630Z,94363.05
2017-07-31T18:29:33.385Z,94369.50
2017-07-31T18:32:01.956Z,94372.52
2017-07-31T18:34:29.851Z,94374.45
2017-07-31T18:36:57.673Z,94377.23
2017-07-31T18:39:25.413Z,94376.42
2017-07-31T18:41:53.317Z,94385.08
2017-07-31T18:44:21.049Z,94389.28
2017-07-31T18:46:49.358Z,94393.93
2017-07-31T18:49:17.169Z,94393.47
2017-07-31T18:51:45.067Z,94399.64
2017-07-31T18:54:12.818Z,94399.75
2017-07-31T18:56:40.589Z,94400.83
2017-07-31T18:59:08.362Z,94401.94
2017-07-31T19:01:36.101Z,94407.59
2017-07-31T19:04:03.875Z,94412.29
2017-07-31T19:06:31.632Z,94414.95
2017-07-31T19:08:59.409Z,94428.53
2017-07-31T19:11:27.626Z,94427.50
2017-07-31T19:13:56.419Z,94430.31
2017-07-31T19:16:24.286Z,94435.09
2017-07-31T19:18:52.082Z,94441.88
2017-07-31T19:21:19.871Z,94448.66
2017-07-31T19:23:47.737Z,94438.43
2017-07-31T19:26:15.625Z,94440.71
2017-07-31T19:28:43.411Z,94445.83
2017-07-31T19:31:11.335Z,94450.65
2017-07-31T19:33:39.126Z,94453.66
2017-07-31T19:36:06.919Z,94459.23
2017-07-31T19:38:34.675Z,94463.96
2017-07-31T19:41:02.590Z,94459.68
2017-07-31T19:43:31.442Z,94458.05
2017-07-31T19:45:59.200Z,94458.13
2017-07-31T19:48:26.937Z,94465.98
2017-07-31T19:50:54.819Z,94469.28
2017-07-31T19:53:22.564Z,94472.09
2017-07-31T19:55:50.323Z,94478.83
2017-07-31T19:58:18.793Z,94475.64
2017-07-31T20:00:46.560Z,94481.47
2017-07-31T20:03:14.278Z,94481.66
2017-07-31T20:05:43.069Z,94483.70
2017-07-31T20:08:11.731Z,94482.75
2017-07-31T20:10:40.526Z,94481.86
2017-07-31T20:13:08.889Z,94479.10
2017-07-31T20:15:36.631Z,94483.77
2017-07-31T20:18:04.428Z,94493.02
2017-07-31T20:20:32.954Z,94487.98
2017-07-31T20:23:00.948Z,94496.55
2017-07-31T20:25:28.716Z,94494.70
2017-07-31T20:27:56.399Z,94499.77
2017-07-31T20:30:24.222Z,94494.78
2017-07-31T20:32:51.970Z,94500.34
2017-07-31T20:35:19.684Z,94503.16
2017-07-31T20:37:47.478Z,94509.73
2017-07-31T20:40:15.192Z,94508.70
2017-07-31T20:42:42.894Z,94509.47
2017-07-31T20:45:10.713Z,94505.98
2017-07-31T20:47:38.429Z,94505.84
2017-07-31T20:50:06.177Z,94510.01
2017-07-31T20:52:34.762Z,94510.27
2017-07-31T20:55:02.479Z,94512.77
2017-07-31T20:57:30.945Z,94513.81
2017-07-31T21:00:00.047Z,94512.52
2017-07-31T21:02:27.812Z,94513.76
2017-07-31T21:04:55.626Z,94509.92
2017-07-31T21:07:23.320Z,94508.46
2017-07-31T21:09:51.042Z,94519.68
2017-07-31T21:12:18.784Z,94522.63
2017-07-31T21:14:46.839Z,94522.49
2017-07-31T21:17:14.647Z,94516.02
2017-07-31T21:19:42.521Z,94516.78
2017-07-31T21:22:10.973Z,94522.00
2017-07-31T21:24:38.709Z,94525.69
2017-07-31T21:27:06.588Z,94525.88
2017-07-31T21:29:34.296Z,94527.17
2017-07-31T21:32:02.105Z,94523.70
2017-07-31T21:34:29.901Z,94530.84
2017-07-31T21:36:57.641Z,94528.54
2017-07-31T21:39:26.590Z,94524.08
2017-07-31T21:41:55.574Z,94527.78
2017-07-31T21:44:23.328Z,94527.72
2017-07-31T21:46:52.183Z,94521.05
2017-07-31T21:49:19.956Z,94524.68
2017-07-31T21:51:47.675Z,94528.87
2017-07-31T21:54:15.500Z,94529.26
2017-07-31T21:56:43.326Z,94529.14
2017-07-31T21:59:11.168Z,94529.52
2017-07-31T22:01:38.980Z,94532.02
2017-07-31T22:04:06.742Z,94537.20
2017-07-31T22:06:35.314Z,94529.93
2017-07-31T22:09:03.073Z,94530.28
2017-07-31T22:11:32.582Z,94528.89
2017-07-31T22:14:01.012Z,94541.52
2017-07-31T22:16:34.447Z,94536.54
2017-07-31T22:19:03.418Z,94535.55
2017-07-31T22:22:04.022Z,94526.05
2017-07-31T22:24:32.779Z,94528.27
2017-07-31T22:27:00.517Z,94532.25
2017-07-31T22:29:29.515Z,94532.47
2017-07-31T22:31:57.805Z,94537.70
2017-07-31T22:34:27.682Z,94534.45
2017-07-31T22:36:56.391Z,94535.59
2017-07-31T22:39:24.233Z,94531.37
2017-07-31T22:41:51.994Z,94528.14
2017-07-31T22:44:20.035Z,94532.14
2017-07-31T22:46:47.738Z,94525.10
2017-07-31T22:49:15.851Z,94529.91
2017-07-31T22:51:44.620Z,94524.55
2017-07-31T22:54:12.446Z,94527.86
2017-07-31T22:56:40.328Z,94530.77
2017-07-31T22:59:08.142Z,94529.84
2017-07-31T23:01:35.977Z,94525.62
2017-07-31T23:04:04.464Z,94518.48
2017-07-31T23:06:32.238Z,94514.14
2017-07-31T23:09:00.016Z,94523.05
2017-07-31T23:11:27.734Z,94524.01
2017-07-31T23:13:55.846Z,94520.54
2017-07-31T23:16:23.597Z,94522.38
2017-07-31T23:18:52.553Z,94514.20
2017-07-31T23:21:20.333Z,94517.15
2017-07-31T23:23:48.121Z,94511.05
2017-07-31T23:26:15.961Z,94510.95
2017-07-31T23:28:44.002Z,94504.89
2017-07-31T23:33:54.594Z,94510.07
2017-07-31T23:36:23.268Z,94502.81
2017-07-31T23:38:50.990Z,94500.71
2017-07-31T23:41:18.776Z,94496.36
2017-07-31T23:43:47.107Z,94493.86
2017-07-31T23:46:15.632Z,94499.79
2017-07-31T23:48:44.403Z,94498.20
2017-07-31T23:51:12.195Z,94490.56
2017-07-31T23:53:40.930Z,94487.55
2017-07-31T23:56:08.676Z,94487.53
2017-07-31T23:58:36.455Z,94485.55
